sensor_id;sensor_type;location;lat;lon;timestamp;pressure;altitude;pressure_sealevel;temperature;humidity
41654;BME280;68687;52.030;7.110;2023-11-19T00:00:32;100057.19;;;10.46;100.00
41654;BME280;68687;52.030;7.110;2023-11-19T00:02:58;100045.56;;;10.39;100.00
41654;BME280;68687;52.030;7.110;2023-11-19T00:05:23;100052.59;;;10.40;100.00
41654;BME280;68687;52.030;7.110;2023-11-19T00:07:48;100052.97;;;10.37;100.00
41654;BME280;68687;52.030;7.110;2023-11-19T00:10:15;100047.09;;;10.48;100.00
41654;BME280;68687;52.030;7.110;2023-11-19T00:12:47;100050.59;;;10.48;100.00
41654;BME280;68687;52.030;7.110;2023-11-19T00:15:16;100035.31;;;10.49;100.00
41654;BME280;68687;52.030;7.110;2023-11-19T00:17:44;100030.59;;;10.51;100.00
41654;BME280;68687;52.030;7.110;2023-11-19T00:20:14;100034.94;;;10.52;100.00
41654;BME280;68687;52.030;7.110;2023-11-19T00:22:40;100025.81;;;10.46;100.00
41654;BME280;68687;52.030;7.110;2023-11-19T00:25:13;100025.06;;;10.59;100.00
41654;BME280;68687;52.030;7.110;2023-11-19T00:27:38;100014.72;;;10.56;100.00
41654;BME280;68687;52.030;7.110;2023-11-19T00:30:05;100011.63;;;10.59;100.00
41654;BME280;68687;52.030;7.110;2023-11-19T00:32:34;100006.91;;;10.61;100.00
41654;BME280;68687;52.030;7.110;2023-11-19T00:34:59;100007.28;;;10.58;100.00
41654;BME280;68687;52.030;7.110;2023-11-19T00:40:46;99984.16;;;10.50;100.00
41654;BME280;68687;52.030;7.110;2023-11-19T00:43:11;99996.38;;;10.66;100.00
41654;BME280;68687;52.030;7.110;2023-11-19T00:45:37;99985.66;;;10.66;100.00
41654;BME280;68687;52.030;7.110;2023-11-19T00:48:02;99985.06;;;10.71;100.00
41654;BME280;68687;52.030;7.110;2023-11-19T00:50:27;99995.59;;;10.72;100.00
41654;BME280;68687;52.030;7.110;2023-11-19T00:55:29;100000.78;;;10.74;100.00
41654;BME280;68687;52.030;7.110;2023-11-19T00:57:54;99986.09;;;10.70;100.00
41654;BME280;68687;52.030;7.110;2023-11-19T01:00:24;99990.47;;;10.84;100.00
41654;BME280;68687;52.030;7.110;2023-11-19T01:02:58;99995.91;;;10.97;100.00
41654;BME280;68687;52.030;7.110;2023-11-19T01:05:23;99994.69;;;11.00;100.00
41654;BME280;68687;52.030;7.110;2023-11-19T01:07:48;99977.91;;;10.91;100.00
41654;BME280;68687;52.030;7.110;2023-11-19T01:10:16;99986.66;;;11.06;100.00
41654;BME280;68687;52.030;7.110;2023-11-19T01:12:43;99979.41;;;11.07;100.00
41654;BME280;68687;52.030;7.110;2023-11-19T01:15:12;99974.88;;;11.14;100.00
41654;BME280;68687;52.030;7.110;2023-11-19T01:17:38;99979.63;;;11.19;100.00
41654;BME280;68687;52.030;7.110;2023-11-19T01:20:04;99970.38;;;11.28;100.00
41654;BME280;68687;52.030;7.110;2023-11-19T01:22:31;99958.19;;;11.32;100.00
41654;BME280;68687;52.030;7.110;2023-11-19T01:24:56;99961.25;;;11.22;100.00
41654;BME280;68687;52.030;7.110;2023-11-19T01:27:26;99948.06;;;11.27;100.00
41654;BME280;68687;52.030;7.110;2023-11-19T01:29:51;99941.22;;;11.31;100.00
41654;BME280;68687;52.030;7.110;2023-11-19T01:32:16;99953.22;;;11.35;100.00
41654;BME280;68687;52.030;7.110;2023-11-19T01:34:41;99958.38;;;11.37;100.00
41654;BME280;68687;52.030;7.110;2023-11-19T01:37:07;99923.47;;;11.30;100.00
41654;BME280;68687;52.030;7.110;2023-11-19T01:39:37;99937.72;;;11.31;100.00
41654;BME280;68687;52.030;7.110;2023-11-19T01:42:03;99935.03;;;11.37;100.00
41654;BME280;68687;52.030;7.110;2023-11-19T01:44:31;99928.22;;;11.41;100.00
41654;BME280;68687;52.030;7.110;2023-11-19T01:46:57;99929.84;;;11.49;100.00
41654;BME280;68687;52.030;7.110;2023-11-19T01:49:22;99926.59;;;11.54;100.00
41654;BME280;68687;52.030;7.110;2023-11-19T01:51:48;99910.44;;;11.54;100.00
41654;BME280;68687;52.030;7.110;2023-11-19T01:54:14;99921.63;;;11.51;100.00
41654;BME280;68687;52.030;7.110;2023-11-19T01:56:40;99911.47;;;11.66;100.00
41654;BME280;68687;52.030;7.110;2023-11-19T01:59:07;99933.59;;;11.61;100.00
41654;BME280;68687;52.030;7.110;2023-11-19T02:01:35;99938.16;;;11.67;100.00
41654;BME280;68687;52.030;7.110;2023-11-19T02:04:08;99934.47;;;11.82;100.00
41654;BME280;68687;52.030;7.110;2023-11-19T02:06:34;99939.78;;;11.75;100.00
41654;BME280;68687;52.030;7.110;2023-11-19T02:09:02;99927.63;;;11.79;100.00
41654;BME280;68687;52.030;7.110;2023-11-19T02:11:33;99930.53;;;11.84;100.00
41654;BME280;68687;52.030;7.110;2023-11-19T02:13:58;99925.34;;;11.89;100.00
41654;BME280;68687;52.030;7.110;2023-11-19T02:16:26;99924.94;;;11.86;100.00
41654;BME280;68687;52.030;7.110;2023-11-19T02:18:56;99926.97;;;11.77;100.00
41654;BME280;68687;52.030;7.110;2023-11-19T02:21:21;99914.78;;;11.88;100.00
41654;BME280;68687;52.030;7.110;2023-11-19T02:23:46;99902.78;;;11.90;100.00
41654;BME280;68687;52.030;7.110;2023-11-19T02:26:16;99907.75;;;11.93;100.00
41654;BME280;68687;52.030;7.110;2023-11-19T02:28:43;99911.69;;;11.91;100.00
41654;BME280;68687;52.030;7.110;2023-11-19T02:31:09;99906.72;;;11.94;100.00
41654;BME280;68687;52.030;7.110;2023-11-19T02:33:35;99911.25;;;12.07;100.00
41654;BME280;68687;52.030;7.110;2023-11-19T02:36:01;99906.25;;;12.04;100.00
41654;BME280;68687;52.030;7.110;2023-11-19T02:38:27;99903.56;;;12.04;100.00
41654;BME280;68687;52.030;7.110;2023-11-19T02:40:52;99904.63;;;12.10;100.00
41654;BME280;68687;52.030;7.110;2023-11-19T02:43:17;99895.31;;;12.05;100.00
41654;BME280;68687;52.030;7.110;2023-11-19T02:45:43;99882.47;;;12.01;100.00
41654;BME280;68687;52.030;7.110;2023-11-19T02:48:10;99876.06;;;12.09;100.00
41654;BME280;68687;52.030;7.110;2023-11-19T02:50:36;99885.16;;;12.07;100.00
41654;BME280;68687;52.030;7.110;2023-11-19T02:53:02;99881.81;;;12.19;100.00
41654;BME280;68687;52.030;7.110;2023-11-19T02:55:27;99875.44;;;12.13;100.00
41654;BME280;68687;52.030;7.110;2023-11-19T02:57:55;99869.34;;;12.31;100.00
41654;BME280;68687;52.030;7.110;2023-11-19T03:00:22;99871.69;;;12.14;100.00
41654;BME280;68687;52.030;7.110;2023-11-19T03:03:02;99874.56;;;12.19;100.00
41654;BME280;68687;52.030;7.110;2023-11-19T03:05:43;99880.16;;;12.18;100.00
41654;BME280;68687;52.030;7.110;2023-11-19T03:08:09;99869.03;;;12.07;100.00
41654;BME280;68687;52.030;7.110;2023-11-19T03:10:35;99868.53;;;12.24;100.00
41654;BME280;68687;52.030;7.110;2023-11-19T03:13:00;99880.78;;;12.20;100.00
41654;BME280;68687;52.030;7.110;2023-11-19T03:15:27;99868.22;;;12.07;100.00
41654;BME280;68687;52.030;7.110;2023-11-19T03:17:52;99880.16;;;12.18;100.00
41654;BME280;68687;52.030;7.110;2023-11-19T03:20:17;99884.09;;;12.15;100.00
41654;BME280;68687;52.030;7.110;2023-11-19T03:22:43;99891.31;;;12.21;100.00
41654;BME280;68687;52.030;7.110;2023-11-19T03:25:09;99886.38;;;12.18;100.00
41654;BME280;68687;52.030;7.110;2023-11-19T03:27:38;99890.06;;;12.24;100.00
41654;BME280;68687;52.030;7.110;2023-11-19T03:30:05;99870.25;;;12.12;100.00
41654;BME280;68687;52.030;7.110;2023-11-19T03:32:31;99878.31;;;12.12;100.00
41654;BME280;68687;52.030;7.110;2023-11-19T03:34:57;99888.84;;;12.20;100.00
41654;BME280;68687;52.030;7.110;2023-11-19T03:37:23;99895.09;;;12.14;100.00
41654;BME280;68687;52.030;7.110;2023-11-19T03:39:49;99890.72;;;12.19;100.00
41654;BME280;68687;52.030;7.110;2023-11-19T03:42:14;99871.91;;;12.13;100.00
41654;BME280;68687;52.030;7.110;2023-11-19T03:44:39;99882.00;;;12.24;100.00
41654;BME280;68687;52.030;7.110;2023-11-19T03:47:04;99883.72;;;12.12;100.00
41654;BME280;68687;52.030;7.110;2023-11-19T03:49:30;99881.41;;;12.15;100.00
41654;BME280;68687;52.030;7.110;2023-11-19T03:51:55;99876.66;;;12.04;100.00
41654;BME280;68687;52.030;7.110;2023-11-19T03:54:20;99887.44;;;12.11;100.00
41654;BME280;68687;52.030;7.110;2023-11-19T03:56:48;99881.03;;;12.12;100.00
41654;BME280;68687;52.030;7.110;2023-11-19T03:59:13;99880.63;;;12.08;100.00
41654;BME280;68687;52.030;7.110;2023-11-19T04:01:40;99867.81;;;11.97;100.00
41654;BME280;68687;52.030;7.110;2023-11-19T04:04:06;99878.56;;;11.97;100.00
41654;BME280;68687;52.030;7.110;2023-11-19T04:06:31;99873.59;;;11.94;100.00
41654;BME280;68687;52.030;7.110;2023-11-19T04:08:56;99882.31;;;11.89;100.00
41654;BME280;68687;52.030;7.110;2023-11-19T04:11:22;99886.47;;;11.85;100.00
41654;BME280;68687;52.030;7.110;2023-11-19T04:13:47;99886.88;;;11.89;100.00
41654;BME280;68687;52.030;7.110;2023-11-19T04:16:12;99880.66;;;11.88;100.00
41654;BME280;68687;52.030;7.110;2023-11-19T04:18:37;99882.50;;;11.94;100.00
41654;BME280;68687;52.030;7.110;2023-11-19T04:21:06;99892.63;;;11.99;100.00
41654;BME280;68687;52.030;7.110;2023-11-19T04:23:31;99877.13;;;11.88;100.00
41654;BME280;68687;52.030;7.110;2023-11-19T04:25:56;99885.81;;;11.96;100.00
41654;BME280;68687;52.030;7.110;2023-11-19T04:28:22;99887.50;;;11.84;100.00
41654;BME280;68687;52.030;7.110;2023-11-19T04:30:47;99895.75;;;11.89;100.00
41654;BME280;68687;52.030;7.110;2023-11-19T04:33:12;99885.84;;;11.83;100.00
41654;BME280;68687;52.030;7.110;2023-11-19T04:35:37;99874.88;;;11.85;100.00
41654;BME280;68687;52.030;7.110;2023-11-19T04:38:03;99871.16;;;11.79;100.00
41654;BME280;68687;52.030;7.110;2023-11-19T04:40:28;99882.13;;;11.84;100.00
41654;BME280;68687;52.030;7.110;2023-11-19T04:42:53;99898.06;;;11.79;100.00
41654;BME280;68687;52.030;7.110;2023-11-19T04:45:19;99904.25;;;11.86;100.00
41654;BME280;68687;52.030;7.110;2023-11-19T04:47:45;99905.31;;;11.79;100.00
41654;BME280;68687;52.030;7.110;2023-11-19T04:50:10;99907.94;;;11.72;100.00
41654;BME280;68687;52.030;7.110;2023-11-19T04:52:38;99917.28;;;11.83;100.00
41654;BME280;68687;52.030;7.110;2023-11-19T04:55:06;99908.16;;;11.64;100.00
41654;BME280;68687;52.030;7.110;2023-11-19T04:57:31;99915.81;;;11.67;100.00
41654;BME280;68687;52.030;7.110;2023-11-19T04:59:58;99916.84;;;11.72;100.00
41654;BME280;68687;52.030;7.110;2023-11-19T05:02:23;99915.63;;;11.55;100.00
41654;BME280;68687;52.030;7.110;2023-11-19T05:04:48;99926.97;;;11.64;100.00
41654;BME280;68687;52.030;7.110;2023-11-19T05:07:14;99917.69;;;11.53;100.00
41654;BME280;68687;52.030;7.110;2023-11-19T05:09:39;99912.50;;;11.38;100.00
41654;BME280;68687;52.030;7.110;2023-11-19T05:12:05;99907.13;;;11.38;100.00
41654;BME280;68687;52.030;7.110;2023-11-19T05:14:30;99922.84;;;11.41;100.00
41654;BME280;68687;52.030;7.110;2023-11-19T05:16:55;99915.59;;;11.42;100.00
41654;BME280;68687;52.030;7.110;2023-11-19T05:19:21;99933.19;;;11.51;100.00
41654;BME280;68687;52.030;7.110;2023-11-19T05:21:46;99914.56;;;11.36;100.00
41654;BME280;68687;52.030;7.110;2023-11-19T05:24:12;99917.25;;;11.36;100.00
41654;BME280;68687;52.030;7.110;2023-11-19T05:26:38;99921.19;;;11.40;100.00
41654;BME280;68687;52.030;7.110;2023-11-19T05:29:03;99922.63;;;11.43;100.00
41654;BME280;68687;52.030;7.110;2023-11-19T05:31:29;99922.84;;;11.41;100.00
41654;BME280;68687;52.030;7.110;2023-11-19T05:33:55;99915.59;;;11.42;100.00
41654;BME280;68687;52.030;7.110;2023-11-19T05:36:20;99914.97;;;11.33;100.00
41654;BME280;68687;52.030;7.110;2023-11-19T05:38:45;99917.88;;;11.38;100.00
41654;BME280;68687;52.030;7.110;2023-11-19T05:41:11;99914.56;;;11.36;100.00
41654;BME280;68687;52.030;7.110;2023-11-19T05:43:36;99909.81;;;11.32;100.00
41654;BME280;68687;52.030;7.110;2023-11-19T05:46:03;99905.69;;;11.29;100.00
41654;BME280;68687;52.030;7.110;2023-11-19T05:48:28;99917.47;;;11.28;100.00
41654;BME280;68687;52.030;7.110;2023-11-19T05:50:54;99922.41;;;11.18;100.00
41654;BME280;68687;52.030;7.110;2023-11-19T05:53:20;99933.13;;;11.18;100.00
41654;BME280;68687;52.030;7.110;2023-11-19T05:55:45;99931.31;;;11.25;100.00
41654;BME280;68687;52.030;7.110;2023-11-19T05:58:26;99929.66;;;11.24;100.00
41654;BME280;68687;52.030;7.110;2023-11-19T06:00:55;99931.31;;;11.25;100.00
41654;BME280;68687;52.030;7.110;2023-11-19T06:03:20;99921.59;;;11.31;100.00
41654;BME280;68687;52.030;7.110;2023-11-19T06:05:49;99928.00;;;11.23;100.00
41654;BME280;68687;52.030;7.110;2023-11-19T06:08:14;99921.34;;;11.06;100.00
41654;BME280;68687;52.030;7.110;2023-11-19T06:10:44;99933.75;;;11.20;100.00
41654;BME280;68687;52.030;7.110;2023-11-19T06:13:11;99933.13;;;11.11;100.00
41654;BME280;68687;52.030;7.110;2023-11-19T06:15:36;99934.78;;;11.19;100.00
41654;BME280;68687;52.030;7.110;2023-11-19T06:18:02;99937.06;;;11.09;100.00
41654;BME280;68687;52.030;7.110;2023-11-19T06:20:32;99939.28;;;10.92;100.00
41654;BME280;68687;52.030;7.110;2023-11-19T06:22:58;99934.38;;;11.15;100.00
41654;BME280;68687;52.030;7.110;2023-11-19T06:25:24;99937.47;;;11.06;100.00
41654;BME280;68687;52.030;7.110;2023-11-19T06:27:49;99938.28;;;11.06;100.00
41654;BME280;68687;52.030;7.110;2023-11-19T06:30:15;99954.00;;;11.03;100.00
41654;BME280;68687;52.030;7.110;2023-11-19T06:32:40;99950.91;;;11.06;100.00
41654;BME280;68687;52.030;7.110;2023-11-19T06:35:05;99949.59;;;10.89;100.00
41654;BME280;68687;52.030;7.110;2023-11-19T06:37:31;99944.66;;;10.92;100.00
41654;BME280;68687;52.030;7.110;2023-11-19T06:39:56;99962.03;;;10.96;100.00
41654;BME280;68687;52.030;7.110;2023-11-19T06:42:21;99954.97;;;10.95;100.00
41654;BME280;68687;52.030;7.110;2023-11-19T06:44:47;99958.69;;;10.88;100.00
41654;BME280;68687;52.030;7.110;2023-11-19T06:47:12;99968.84;;;10.99;100.00
41654;BME280;68687;52.030;7.110;2023-11-19T06:49:37;99973.34;;;10.92;100.00
41654;BME280;68687;52.030;7.110;2023-11-19T06:52:03;99968.81;;;10.86;100.00
41654;BME280;68687;52.030;7.110;2023-11-19T06:54:29;99968.41;;;10.89;100.00
41654;BME280;68687;52.030;7.110;2023-11-19T06:56:55;99955.38;;;10.86;100.00
41654;BME280;68687;52.030;7.110;2023-11-19T06:59:20;99949.59;;;10.95;100.00
41654;BME280;68687;52.030;7.110;2023-11-19T07:01:46;99961.22;;;10.96;100.00
41654;BME280;68687;52.030;7.110;2023-11-19T07:04:11;99964.94;;;11.01;100.00
41654;BME280;68687;52.030;7.110;2023-11-19T07:06:37;99958.28;;;10.91;100.00
41654;BME280;68687;52.030;7.110;2023-11-19T07:09:03;99972.09;;;10.88;100.00
41654;BME280;68687;52.030;7.110;2023-11-19T07:11:36;99962.63;;;10.92;100.00
41654;BME280;68687;52.030;7.110;2023-11-19T07:14:02;99956.00;;;10.88;100.00
41654;BME280;68687;52.030;7.110;2023-11-19T07:16:27;99949.19;;;10.92;100.00
41654;BME280;68687;52.030;7.110;2023-11-19T07:18:53;99949.59;;;10.89;100.00
41654;BME280;68687;52.030;7.110;2023-11-19T07:21:19;99954.97;;;10.89;100.00
41654;BME280;68687;52.030;7.110;2023-11-19T07:23:45;99961.00;;;10.97;100.00
41654;BME280;68687;52.030;7.110;2023-11-19T07:26:10;99963.91;;;10.96;100.00
41654;BME280;68687;52.030;7.110;2023-11-19T07:28:36;99973.13;;;10.87;100.00
41654;BME280;68687;52.030;7.110;2023-11-19T07:31:01;99969.69;;;11.06;100.00
41654;BME280;68687;52.030;7.110;2023-11-19T07:33:27;99967.41;;;11.03;100.00
41654;BME280;68687;52.030;7.110;2023-11-19T07:35:52;99974.84;;;11.01;100.00
41654;BME280;68687;52.030;7.110;2023-11-19T07:38:17;99976.84;;;10.86;100.00
41654;BME280;68687;52.030;7.110;2023-11-19T07:40:43;99984.34;;;10.97;100.00
41654;BME280;68687;52.030;7.110;2023-11-19T07:43:08;99982.41;;;10.77;100.00
41654;BME280;68687;52.030;7.110;2023-11-19T07:45:33;99982.69;;;10.96;100.00
41654;BME280;68687;52.030;7.110;2023-11-19T07:47:59;99992.00;;;11.00;100.00
41654;BME280;68687;52.030;7.110;2023-11-19T07:50:26;99992.16;;;10.92;100.00
41654;BME280;68687;52.030;7.110;2023-11-19T07:52:51;99991.38;;;11.04;100.00
41654;BME280;68687;52.030;7.110;2023-11-19T07:55:17;99992.81;;;11.00;100.00
41654;BME280;68687;52.030;7.110;2023-11-19T07:57:42;99997.16;;;11.01;100.00
41654;BME280;68687;52.030;7.110;2023-11-19T08:00:08;99991.81;;;11.08;100.00
41654;BME280;68687;52.030;7.110;2023-11-19T08:02:37;99990.97;;;11.01;100.00
41654;BME280;68687;52.030;7.110;2023-11-19T08:05:05;99992.44;;;11.10;100.00
41654;BME280;68687;52.030;7.110;2023-11-19T08:07:31;99999.84;;;11.01;100.00
41654;BME280;68687;52.030;7.110;2023-11-19T08:09:56;99997.38;;;11.00;100.00
41654;BME280;68687;52.030;7.110;2023-11-19T08:12:22;100013.28;;;11.01;100.00
41654;BME280;68687;52.030;7.110;2023-11-19T08:14:53;100020.94;;;11.11;100.00
41654;BME280;68687;52.030;7.110;2023-11-19T08:17:18;100024.03;;;11.01;100.00
41654;BME280;68687;52.030;7.110;2023-11-19T08:19:43;100024.03;;;11.01;100.00
41654;BME280;68687;52.030;7.110;2023-11-19T08:22:09;100025.69;;;11.09;100.00
41654;BME280;68687;52.030;7.110;2023-11-19T08:24:35;100035.78;;;11.00;100.00
41654;BME280;68687;52.030;7.110;2023-11-19T08:27:00;100023.00;;;11.09;100.00
41654;BME280;68687;52.030;7.110;2023-11-19T08:29:25;100026.13;;;11.19;100.00
41654;BME280;68687;52.030;7.110;2023-11-19T08:31:52;100016.19;;;11.13;100.00
41654;BME280;68687;52.030;7.110;2023-11-19T08:34:17;100035.03;;;11.20;100.00
41654;BME280;68687;52.030;7.110;2023-11-19T08:36:45;100033.56;;;11.10;100.00
41654;BME280;68687;52.030;7.110;2023-11-19T08:39:13;100028.81;;;11.12;100.00
41654;BME280;68687;52.030;7.110;2023-11-19T08:41:39;100028.59;;;11.07;100.00
41654;BME280;68687;52.030;7.110;2023-11-19T08:44:05;100034.22;;;11.26;100.00
41654;BME280;68687;52.030;7.110;2023-11-19T08:46:30;100015.56;;;11.11;100.00
41654;BME280;68687;52.030;7.110;2023-11-19T08:48:55;100025.09;;;11.20;100.00
41654;BME280;68687;52.030;7.110;2023-11-19T08:51:23;100042.50;;;11.31;100.00
41654;BME280;68687;52.030;7.110;2023-11-19T08:53:50;100028.41;;;11.22;100.00
41654;BME280;68687;52.030;7.110;2023-11-19T08:56:15;100027.63;;;11.28;100.00
41654;BME280;68687;52.030;7.110;2023-11-19T08:58:40;100029.09;;;11.37;100.00
41654;BME280;68687;52.030;7.110;2023-11-19T09:01:05;100036.53;;;11.49;100.00
41654;BME280;68687;52.030;7.110;2023-11-19T09:03:31;100032.44;;;11.59;100.00
41654;BME280;68687;52.030;7.110;2023-11-19T09:05:56;100032.44;;;11.53;100.00
41654;BME280;68687;52.030;7.110;2023-11-19T09:08:22;100032.03;;;11.62;100.00
41654;BME280;68687;52.030;7.110;2023-11-19T09:10:47;100036.59;;;11.68;100.00
41654;BME280;68687;52.030;7.110;2023-11-19T09:13:12;100023.75;;;11.64;100.00
41654;BME280;68687;52.030;7.110;2023-11-19T09:15:38;100039.88;;;11.64;100.00
41654;BME280;68687;52.030;7.110;2023-11-19T09:18:03;100037.00;;;11.65;100.00
41654;BME280;68687;52.030;7.110;2023-11-19T09:20:29;100044.84;;;11.67;100.00
41654;BME280;68687;52.030;7.110;2023-11-19T09:23:02;100036.16;;;11.71;100.00
41654;BME280;68687;52.030;7.110;2023-11-19T09:25:31;100027.69;;;11.74;100.00
41654;BME280;68687;52.030;7.110;2023-11-19T09:27:56;100025.00;;;11.61;100.00
41654;BME280;68687;52.030;7.110;2023-11-19T09:30:22;100032.84;;;11.63;100.00
41654;BME280;68687;52.030;7.110;2023-11-19T09:32:47;100028.72;;;11.67;100.00
41654;BME280;68687;52.030;7.110;2023-11-19T09:35:13;100030.59;;;11.73;100.00
41654;BME280;68687;52.030;7.110;2023-11-19T09:37:39;100034.50;;;11.64;100.00
41654;BME280;68687;52.030;7.110;2023-11-19T09:40:08;100036.59;;;11.68;100.00
41654;BME280;68687;52.030;7.110;2023-11-19T09:42:42;100041.59;;;11.78;100.00
41654;BME280;68687;52.030;7.110;2023-11-19T09:45:13;100025.81;;;11.75;100.00
41654;BME280;68687;52.030;7.110;2023-11-19T09:47:39;100022.09;;;11.76;100.00
41654;BME280;68687;52.030;7.110;2023-11-19T09:50:05;100025.69;;;11.83;100.00
41654;BME280;68687;52.030;7.110;2023-11-19T09:52:31;100025.47;;;11.78;100.00
41654;BME280;68687;52.030;7.110;2023-11-19T09:54:56;100021.97;;;11.84;100.00
41654;BME280;68687;52.030;7.110;2023-11-19T09:57:21;100023.81;;;11.90;100.00
41654;BME280;68687;52.030;7.110;2023-11-19T09:59:47;100013.88;;;11.91;100.00
41654;BME280;68687;52.030;7.110;2023-11-19T10:02:14;100026.50;;;12.03;100.00
41654;BME280;68687;52.030;7.110;2023-11-19T10:04:39;100015.53;;;11.98;100.00
41654;BME280;68687;52.030;7.110;2023-11-19T10:07:07;100025.88;;;12.08;100.00
41654;BME280;68687;52.030;7.110;2023-11-19T10:09:32;100023.59;;;12.12;100.00
41654;BME280;68687;52.030;7.110;2023-11-19T10:11:57;100019.66;;;11.94;100.00
41654;BME280;68687;52.030;7.110;2023-11-19T10:14:23;100024.22;;;11.87;100.00
41654;BME280;68687;52.030;7.110;2023-11-19T10:16:49;100011.19;;;11.91;100.00
41654;BME280;68687;52.030;7.110;2023-11-19T10:19:20;100005.59;;;12.12;100.00
41654;BME280;68687;52.030;7.110;2023-11-19T10:21:48;100016.56;;;11.97;100.00
41654;BME280;68687;52.030;7.110;2023-11-19T10:24:14;100006.84;;;11.96;100.00
41654;BME280;68687;52.030;7.110;2023-11-19T10:26:40;100008.50;;;11.97;100.00
41654;BME280;68687;52.030;7.110;2023-11-19T10:29:05;100005.38;;;12.14;100.00
41654;BME280;68687;52.030;7.110;2023-11-19T10:31:30;100016.78;;;12.16;100.00
41654;BME280;68687;52.030;7.110;2023-11-19T10:33:56;100017.59;;;12.16;100.00
41654;BME280;68687;52.030;7.110;2023-11-19T10:36:21;100003.75;;;12.13;100.00
41654;BME280;68687;52.030;7.110;2023-11-19T10:38:53;100016.75;;;12.02;100.00
41654;BME280;68687;52.030;7.110;2023-11-19T10:41:32;100022.75;;;12.04;100.00
41654;BME280;68687;52.030;7.110;2023-11-19T10:43:58;100014.50;;;12.13;100.00
41654;BME280;68687;52.030;7.110;2023-11-19T10:46:36;100015.13;;;12.15;100.00
41654;BME280;68687;52.030;7.110;2023-11-19T10:49:01;100004.75;;;12.05;100.00
41654;BME280;68687;52.030;7.110;2023-11-19T10:51:27;100008.03;;;13.05;99.52
41654;BME280;68687;52.030;7.110;2023-11-19T10:53:57;100007.84;;;12.99;99.12
41654;BME280;68687;52.030;7.110;2023-11-19T10:56:30;100017.09;;;12.65;100.00
41654;BME280;68687;52.030;7.110;2023-11-19T10:58:57;100002.84;;;12.45;99.66
41654;BME280;68687;52.030;7.110;2023-11-19T11:01:27;100010.31;;;12.43;100.00
41654;BME280;68687;52.030;7.110;2023-11-19T11:03:59;100009.28;;;12.37;100.00
41654;BME280;68687;52.030;7.110;2023-11-19T11:06:26;100004.34;;;12.34;100.00
41654;BME280;68687;52.030;7.110;2023-11-19T11:08:52;99996.03;;;12.36;99.03
41654;BME280;68687;52.030;7.110;2023-11-19T11:11:18;100003.09;;;12.24;100.00
41654;BME280;68687;52.030;7.110;2023-11-19T11:13:47;100004.94;;;12.30;100.00
41654;BME280;68687;52.030;7.110;2023-11-19T11:16:13;100000.16;;;12.45;99.76
41654;BME280;68687;52.030;7.110;2023-11-19T11:18:39;99994.34;;;12.48;100.00
41654;BME280;68687;52.030;7.110;2023-11-19T11:21:09;99992.28;;;12.50;99.62
41654;BME280;68687;52.030;7.110;2023-11-19T11:27:21;99995.56;;;12.52;98.31
41654;BME280;68687;52.030;7.110;2023-11-19T11:32:43;99988.38;;;12.40;98.84
41654;BME280;68687;52.030;7.110;2023-11-19T11:35:27;99992.94;;;12.39;99.59
41654;BME280;68687;52.030;7.110;2023-11-19T11:38:06;100003.28;;;12.42;99.74
41654;BME280;68687;52.030;7.110;2023-11-19T11:40:32;100002.84;;;12.32;99.29
41654;BME280;68687;52.030;7.110;2023-11-19T11:42:57;99997.69;;;12.37;99.85
41654;BME280;68687;52.030;7.110;2023-11-19T11:45:37;99987.75;;;12.31;99.75
41654;BME280;68687;52.030;7.110;2023-11-19T11:48:17;99987.75;;;12.37;99.69
41654;BME280;68687;52.030;7.110;2023-11-19T11:50:49;99986.28;;;12.48;98.52
41654;BME280;68687;52.030;7.110;2023-11-19T11:53:19;100002.66;;;12.40;99.38
41654;BME280;68687;52.030;7.110;2023-11-19T11:58:13;99986.09;;;12.43;99.66
41654;BME280;68687;52.030;7.110;2023-11-19T12:00:40;99990.63;;;12.49;99.60
41654;BME280;68687;52.030;7.110;2023-11-19T12:03:07;99984.81;;;12.52;98.60
41654;BME280;68687;52.030;7.110;2023-11-19T12:05:38;99972.81;;;12.48;98.53
41654;BME280;68687;52.030;7.110;2023-11-19T12:08:04;99973.00;;;12.53;98.50
41654;BME280;68687;52.030;7.110;2023-11-19T12:10:36;99964.06;;;12.66;97.02
41654;BME280;68687;52.030;7.110;2023-11-19T12:13:06;99966.16;;;12.64;96.80
41654;BME280;68687;52.030;7.110;2023-11-19T12:18:20;99949.16;;;12.63;96.40
41654;BME280;68687;52.030;7.110;2023-11-19T12:20:48;99946.25;;;12.65;97.59
41654;BME280;68687;52.030;7.110;2023-11-19T12:23:14;99952.91;;;12.62;97.56
41654;BME280;68687;52.030;7.110;2023-11-19T12:25:40;99942.22;;;12.81;96.46
41654;BME280;68687;52.030;7.110;2023-11-19T12:28:11;99952.03;;;12.68;96.50
41654;BME280;68687;52.030;7.110;2023-11-19T12:30:36;99952.78;;;12.82;95.33
41654;BME280;68687;52.030;7.110;2023-11-19T12:33:07;99953.41;;;12.84;95.47
41654;BME280;68687;52.030;7.110;2023-11-19T12:35:44;99952.13;;;12.87;95.80
41654;BME280;68687;52.030;7.110;2023-11-19T12:38:24;99949.88;;;12.84;95.95
41654;BME280;68687;52.030;7.110;2023-11-19T12:41:03;99937.09;;;12.73;95.22
41654;BME280;68687;52.030;7.110;2023-11-19T12:43:29;99923.75;;;12.91;93.91
41654;BME280;68687;52.030;7.110;2023-11-19T12:46:00;99929.53;;;12.94;95.42
41654;BME280;68687;52.030;7.110;2023-11-19T12:48:26;99938.19;;;13.03;95.00
41654;BME280;68687;52.030;7.110;2023-11-19T12:50:58;99945.44;;;13.03;93.77
41654;BME280;68687;52.030;7.110;2023-11-19T12:53:25;99932.78;;;13.03;94.43
41654;BME280;68687;52.030;7.110;2023-11-19T12:55:51;99939.06;;;12.97;92.64
41654;BME280;68687;52.030;7.110;2023-11-19T12:58:37;99941.56;;;12.92;94.20
41654;BME280;68687;52.030;7.110;2023-11-19T13:01:07;99959.63;;;12.85;94.94
41654;BME280;68687;52.030;7.110;2023-11-19T13:03:35;99958.56;;;12.86;97.65